createdAt,value
2022-08-05T00:00:18.338Z,19.60
2022-08-05T00:02:50.488Z,19.58
2022-08-05T00:06:03.030Z,19.57
2022-08-05T00:08:34.268Z,19.56
2022-08-05T00:11:01.332Z,19.48
2022-08-05T00:13:39.608Z,19.51
2022-08-05T00:16:14.317Z,19.52
2022-08-05T00:18:44.527Z,19.52
2022-08-05T00:21:14.481Z,19.50
2022-08-05T00:23:46.085Z,19.53
2022-08-05T00:26:16.462Z,19.49
2022-08-05T00:28:45.915Z,19.46
2022-08-05T00:31:13.233Z,19.38
2022-08-05T00:34:56.487Z,19.35
2022-08-05T00:37:11.754Z,19.35
2022-08-05T00:39:14.730Z,19.32
2022-08-05T00:41:55.222Z,19.31
2022-08-05T00:44:31.004Z,19.34
2022-08-05T00:47:02.139Z,19.36
2022-08-05T00:49:32.830Z,19.38
2022-08-05T00:52:11.494Z,19.45
2022-08-05T00:54:38.967Z,19.52
2022-08-05T00:57:06.123Z,19.53
2022-08-05T00:59:44.344Z,19.54
2022-08-05T01:02:11.703Z,19.54
2022-08-05T01:04:42.221Z,19.55
2022-08-05T01:07:13.836Z,19.56
2022-08-05T01:09:42.107Z,19.48
2022-08-05T01:12:18.839Z,19.42
2022-08-05T01:14:59.694Z,19.38
2022-08-05T01:17:45.921Z,19.32
2022-08-05T01:20:39.664Z,19.23
2022-08-05T01:23:23.387Z,19.21
2022-08-05T01:25:53.693Z,19.22
2022-08-05T01:29:00.641Z,19.16
2022-08-05T01:31:58.369Z,19.16
2022-08-05T01:34:31.615Z,19.22
2022-08-05T01:37:26.126Z,19.25
2022-08-05T01:39:55.104Z,19.23
2022-08-05T01:42:28.009Z,19.19
2022-08-05T01:44:59.844Z,19.07
2022-08-05T01:47:39.307Z,18.99
2022-08-05T01:50:15.114Z,18.94
2022-08-05T01:52:49.687Z,18.91
2022-08-05T01:55:21.114Z,18.83
2022-08-05T01:58:12.869Z,18.70
2022-08-05T02:00:39.873Z,18.66
2022-08-05T02:03:24.223Z,18.56
2022-08-05T02:05:57.935Z,18.51
2022-08-05T02:08:29.634Z,18.44
2022-08-05T02:11:23.691Z,18.38
2022-08-05T02:14:00.680Z,18.41
2022-08-05T02:16:33.894Z,18.39
2022-08-05T02:19:22.764Z,18.37
2022-08-05T02:21:59.438Z,18.35
2022-08-05T02:24:32.452Z,18.31
2022-08-05T02:27:10.152Z,18.30
2022-08-05T02:29:59.993Z,18.33
2022-08-05T02:32:31.485Z,18.32
2022-08-05T02:35:13.477Z,18.33
2022-08-05T02:37:47.605Z,18.34
2022-08-05T02:40:17.089Z,18.35
2022-08-05T02:42:52.646Z,18.37
2022-08-05T02:45:25.587Z,18.37
2022-08-05T02:48:06.337Z,18.36
2022-08-05T02:50:38.354Z,18.37
2022-08-05T02:53:12.020Z,18.38
2022-08-05T02:55:54.608Z,18.34
2022-08-05T02:58:27.618Z,18.34
2022-08-05T03:01:00.980Z,18.32
2022-08-05T03:03:33.759Z,18.36
2022-08-05T03:06:55.566Z,18.32
2022-08-05T03:08:53.116Z,18.26
2022-08-05T03:11:55.278Z,18.20
2022-08-05T03:14:13.578Z,18.21
2022-08-05T03:16:41.329Z,18.16
2022-08-05T03:19:17.201Z,18.16
2022-08-05T03:21:55.600Z,18.18
2022-08-05T03:24:30.155Z,18.17
2022-08-05T03:26:59.392Z,18.17
2022-08-05T03:29:44.570Z,18.12
2022-08-05T03:32:15.599Z,18.10
2022-08-05T03:34:50.671Z,18.09
2022-08-05T03:37:20.921Z,18.08
2022-08-05T03:40:01.820Z,18.04
2022-08-05T03:42:32.352Z,18.02
2022-08-05T03:45:01.533Z,18.00
2022-08-05T03:47:35.131Z,17.98
2022-08-05T03:50:02.424Z,17.97
2022-08-05T03:52:50.353Z,17.97
2022-08-05T03:56:04.809Z,17.90
2022-08-05T03:58:34.431Z,17.92
2022-08-05T04:01:03.982Z,17.90
2022-08-05T04:03:36.031Z,17.87
2022-08-05T04:06:06.918Z,17.86
2022-08-05T04:08:37.045Z,17.81
2022-08-05T04:11:08.563Z,17.80
2022-08-05T04:13:50.858Z,17.80
2022-08-05T04:16:25.521Z,17.79
2022-08-05T04:19:00.118Z,17.78
2022-08-05T04:22:08.062Z,17.72
2022-08-05T04:24:19.179Z,17.73
2022-08-05T04:26:50.610Z,17.69
2022-08-05T04:29:18.275Z,17.69
2022-08-05T04:31:48.372Z,17.71
2022-08-05T04:34:32.585Z,17.68
2022-08-05T04:37:03.077Z,17.73
2022-08-05T04:39:32.201Z,17.75
2022-08-05T04:41:59.492Z,17.77
2022-08-05T04:44:30.225Z,17.79
2022-08-05T04:46:59.583Z,17.81
2022-08-05T04:49:38.674Z,17.87
2022-08-05T04:52:18.816Z,17.89
2022-08-05T04:54:46.236Z,17.94
2022-08-05T04:57:13.508Z,17.91
2022-08-05T04:59:40.947Z,17.89
2022-08-05T05:02:36.595Z,17.92
2022-08-05T05:05:01.762Z,17.99
2022-08-05T05:07:32.329Z,18.00
2022-08-05T05:10:04.495Z,18.00
2022-08-05T05:12:31.563Z,18.00
2022-08-05T05:14:58.738Z,17.97
2022-08-05T05:17:56.912Z,17.96
2022-08-05T05:20:14.069Z,17.90
2022-08-05T05:22:43.952Z,17.84
2022-08-05T05:25:16.854Z,17.85
2022-08-05T05:27:53.788Z,17.80
2022-08-05T05:30:31.087Z,17.75
2022-08-05T05:33:09.339Z,17.74
2022-08-05T05:35:45.492Z,17.77
2022-08-05T05:38:13.082Z,17.78
2022-08-05T05:40:48.068Z,17.81
2022-08-05T05:43:28.155Z,17.90
2022-08-05T05:46:12.167Z,17.97
2022-08-05T05:48:42.047Z,18.04
2022-08-05T05:51:14.960Z,18.14
2022-08-05T05:53:54.615Z,18.21
2022-08-05T05:56:34.842Z,18.30
2022-08-05T05:59:05.326Z,18.37
2022-08-05T06:01:39.769Z,18.47
2022-08-05T06:04:12.757Z,18.57
2022-08-05T06:06:43.014Z,18.66
2022-08-05T06:09:16.961Z,18.74
2022-08-05T06:12:01.457Z,18.80
2022-08-05T06:14:33.403Z,18.83
2022-08-05T06:17:22.407Z,18.93
2022-08-05T06:19:56.861Z,19.04
2022-08-05T06:22:29.943Z,19.19
2022-08-05T06:24:57.713Z,19.31
2022-08-05T06:28:10.783Z,19.44
2022-08-05T06:30:20.177Z,19.63
2022-08-05T06:32:50.558Z,19.73
2022-08-05T06:36:04.115Z,19.74
2022-08-05T06:38:09.793Z,19.83
2022-08-05T06:40:42.198Z,19.94
2022-08-05T06:43:57.661Z,20.17
2022-08-05T06:46:06.889Z,20.60
2022-08-05T06:48:50.258Z,21.00
2022-08-05T06:51:30.077Z,21.26
2022-08-05T06:54:02.852Z,21.35
2022-08-05T06:56:34.578Z,21.53
2022-08-05T06:59:09.754Z,21.44
2022-08-05T07:01:40.907Z,21.43
2022-08-05T07:04:10.486Z,20.93
2022-08-05T07:06:37.696Z,20.49
2022-08-05T07:09:05.053Z,20.19
2022-08-05T07:11:37.203Z,20.04
2022-08-05T07:14:29.808Z,20.03
2022-08-05T07:18:08.485Z,19.98
2022-08-05T07:20:31.494Z,20.06
2022-08-05T07:22:39.147Z,20.19
2022-08-05T07:25:23.584Z,20.27
2022-08-05T07:28:01.502Z,20.41
2022-08-05T07:30:33.900Z,20.53
2022-08-05T07:33:09.441Z,20.61
2022-08-05T07:36:01.624Z,20.70
2022-08-05T07:38:34.033Z,20.88
2022-08-05T07:42:07.209Z,20.79
2022-08-05T07:43:55.103Z,20.68
2022-08-05T07:46:26.152Z,20.57
2022-08-05T07:49:02.328Z,20.61
2022-08-05T07:51:37.546Z,20.85
2022-08-05T07:54:16.696Z,21.30
2022-08-05T07:57:13.812Z,21.92
2022-08-05T07:59:39.990Z,21.99
2022-08-05T08:02:16.971Z,21.69
2022-08-05T08:04:46.837Z,21.70
2022-08-05T08:07:15.046Z,21.43
2022-08-05T08:09:42.744Z,21.22
2022-08-05T08:12:19.224Z,21.19
2022-08-05T08:14:57.108Z,21.02
2022-08-05T08:17:30.300Z,21.05
2022-08-05T08:20:22.791Z,20.93
2022-08-05T08:22:44.307Z,21.00
2022-08-05T08:25:15.777Z,21.18
2022-08-05T08:27:45.179Z,21.52
2022-08-05T08:30:29.658Z,21.73
2022-08-05T08:33:08.680Z,22.19
2022-08-05T08:35:52.704Z,22.42
2022-08-05T08:38:35.362Z,22.61
2022-08-05T08:41:10.238Z,22.53
2022-08-05T08:45:17.858Z,22.56
2022-08-05T08:46:32.055Z,22.71
2022-08-05T08:50:04.070Z,22.66
2022-08-05T08:52:04.052Z,22.39
2022-08-05T08:54:34.153Z,22.40
2022-08-05T08:57:11.233Z,22.38
2022-08-05T08:59:41.829Z,22.64
2022-08-05T09:02:16.689Z,22.58
2022-08-05T09:04:47.703Z,22.04
2022-08-05T09:07:39.862Z,21.93
2022-08-05T09:10:19.800Z,22.19
2022-08-05T09:12:50.849Z,22.57
2022-08-05T09:15:20.599Z,22.87
2022-08-05T09:17:53.037Z,22.94
2022-08-05T09:20:36.125Z,22.52
2022-08-05T09:23:09.220Z,22.15
2022-08-05T09:26:01.166Z,22.22
2022-08-05T09:28:33.387Z,22.38
2022-08-05T09:31:44.036Z,22.26
2022-08-05T09:34:02.849Z,22.26
2022-08-05T09:36:54.699Z,22.46
2022-08-05T09:39:27.557Z,22.72
2022-08-05T09:42:07.821Z,22.48
2022-08-05T09:44:50.553Z,22.48
2022-08-05T09:47:23.201Z,22.40
2022-08-05T09:50:02.094Z,22.51
2022-08-05T09:52:35.052Z,22.80
2022-08-05T09:55:56.715Z,22.87
2022-08-05T09:57:54.638Z,22.79
2022-08-05T10:00:26.612Z,22.53
2022-08-05T10:02:58.462Z,22.65
2022-08-05T10:05:28.748Z,22.49
2022-08-05T10:08:34.631Z,22.37
2022-08-05T10:10:54.696Z,22.67
2022-08-05T10:13:45.662Z,23.10
2022-08-05T10:16:38.017Z,22.98
2022-08-05T10:19:11.944Z,23.00
2022-08-05T10:21:40.315Z,23.28
2022-08-05T10:24:13.680Z,23.35
2022-08-05T10:26:51.858Z,23.51
2022-08-05T10:30:05.863Z,23.40
2022-08-05T10:32:54.432Z,22.60
2022-08-05T10:35:00.966Z,22.58
2022-08-05T10:37:40.338Z,23.21
2022-08-05T10:40:47.172Z,23.79
2022-08-05T10:43:30.805Z,23.39
2022-08-05T10:46:06.726Z,23.31
2022-08-05T10:48:58.086Z,23.09
2022-08-05T10:51:29.341Z,22.87
2022-08-05T10:54:05.758Z,22.83
2022-08-05T10:56:57.954Z,22.74
2022-08-05T11:00:03.678Z,22.78
2022-08-05T11:02:37.500Z,22.72
2022-08-05T11:05:10.864Z,22.83
2022-08-05T11:08:03.226Z,22.88
2022-08-05T11:10:38.277Z,23.25
2022-08-05T11:13:54.829Z,22.95
2022-08-05T11:16:33.723Z,23.51
2022-08-05T11:20:10.796Z,23.87
2022-08-05T11:22:42.148Z,23.19
2022-08-05T11:26:04.312Z,23.30
2022-08-05T11:28:24.603Z,23.30
2022-08-05T11:31:05.924Z,22.98
2022-08-05T11:33:47.836Z,22.96
2022-08-05T11:36:34.365Z,23.09
2022-08-05T11:39:07.349Z,23.08
2022-08-05T11:42:01.296Z,23.12
2022-08-05T11:44:40.506Z,23.36
2022-08-05T11:47:10.461Z,23.95
2022-08-05T11:49:39.487Z,24.59
2022-08-05T11:52:11.701Z,24.27
2022-08-05T11:54:40.601Z,23.72
2022-08-05T11:57:24.251Z,23.35
2022-08-05T11:59:54.310Z,22.84
2022-08-05T12:02:33.177Z,22.53
2022-08-05T12:05:07.292Z,22.80
2022-08-05T12:08:09.100Z,22.88
2022-08-05T12:10:38.672Z,22.88
2022-08-05T12:13:14.675Z,23.49
2022-08-05T12:15:45.443Z,23.52
2022-08-05T12:18:38.643Z,23.39
2022-08-05T12:21:15.197Z,22.95
2022-08-05T12:24:05.216Z,22.79
2022-08-05T12:26:44.127Z,22.94
2022-08-05T12:29:23.482Z,22.95
2022-08-05T12:31:53.569Z,23.03
2022-08-05T12:34:33.389Z,23.02
2022-08-05T12:37:17.231Z,22.87
2022-08-05T12:39:51.971Z,22.56
2022-08-05T12:42:21.815Z,22.56
2022-08-05T12:45:10.522Z,22.67
2022-08-05T12:47:38.021Z,23.11
2022-08-05T12:50:17.548Z,23.48
2022-08-05T12:52:59.750Z,23.59
2022-08-05T12:55:33.045Z,23.32
2022-08-05T12:58:49.831Z,22.80
2022-08-05T13:02:01.160Z,22.81
2022-08-05T13:03:42.351Z,22.87
2022-08-05T13:06:18.145Z,22.56
2022-08-05T13:08:52.332Z,22.23
2022-08-05T13:12:03.172Z,21.68
2022-08-05T13:14:36.604Z,21.46
2022-08-05T13:17:16.447Z,21.63
2022-08-05T13:20:07.153Z,21.99
2022-08-05T13:22:43.588Z,21.93
2022-08-05T13:25:19.194Z,21.56
2022-08-05T13:27:54.511Z,21.51
2022-08-05T13:30:35.875Z,22.09
2022-08-05T13:33:05.694Z,22.68
2022-08-05T13:35:47.489Z,22.56
2022-08-05T13:38:30.539Z,22.01
2022-08-05T13:41:03.943Z,22.22
2022-08-05T13:43:45.377Z,22.49
2022-08-05T13:46:35.684Z,22.48
2022-08-05T13:49:10.190Z,22.53
2022-08-05T13:51:41.117Z,22.28
2022-08-05T13:54:13.626Z,22.10
2022-08-05T13:56:44.958Z,22.19
2022-08-05T13:59:27.542Z,22.41
2022-08-05T14:02:00.260Z,22.24
2022-08-05T14:05:01.450Z,22.11
2022-08-05T14:08:01.010Z,22.17
2022-08-05T14:10:28.767Z,21.89
2022-08-05T14:12:57.446Z,21.93
2022-08-05T14:16:09.087Z,22.09
2022-08-05T14:18:17.638Z,22.30
2022-08-05T14:20:48.127Z,22.38
2022-08-05T14:23:23.922Z,22.34
2022-08-05T14:25:59.116Z,22.40
2022-08-05T14:28:30.270Z,22.28
2022-08-05T14:30:59.463Z,22.39
2022-08-05T14:33:27.934Z,22.24
2022-08-05T14:36:15.261Z,22.38
2022-08-05T14:38:42.206Z,22.80
2022-08-05T14:41:11.730Z,22.30
2022-08-05T14:44:01.976Z,22.03
2022-08-05T14:46:30.821Z,22.60
2022-08-05T14:49:06.556Z,22.96
2022-08-05T14:51:42.602Z,22.93
2022-08-05T14:54:27.724Z,22.78
2022-08-05T14:56:58.138Z,22.19
2022-08-05T14:59:29.599Z,22.09
2022-08-05T15:02:03.145Z,22.12
2022-08-05T15:04:30.427Z,21.90
2022-08-05T15:06:57.709Z,21.64
2022-08-05T15:09:50.627Z,21.42
2022-08-05T15:12:17.009Z,21.35
2022-08-05T15:14:49.909Z,21.45
2022-08-05T15:17:47.753Z,21.61
2022-08-05T15:20:15.696Z,22.18
2022-08-05T15:22:45.762Z,22.86
2022-08-05T15:25:23.296Z,23.29
2022-08-05T15:28:08.318Z,23.40
2022-08-05T15:30:41.003Z,23.40
2022-08-05T15:33:10.543Z,23.69
2022-08-05T15:35:45.286Z,23.87
2022-08-05T15:38:35.829Z,23.85
2022-08-05T15:41:22.565Z,23.52
2022-08-05T15:43:47.329Z,22.83
2022-08-05T15:46:14.542Z,22.61
2022-08-05T15:48:51.899Z,22.63
2022-08-05T15:52:13.398Z,22.84
2022-08-05T15:54:17.459Z,22.71
2022-08-05T15:56:44.606Z,22.58
2022-08-05T15:59:21.799Z,22.28
2022-08-05T16:01:52.438Z,22.40
2022-08-05T16:04:20.962Z,22.68
2022-08-05T16:06:54.194Z,22.66
2022-08-05T16:09:23.800Z,22.36
2022-08-05T16:11:53.734Z,22.64
2022-08-05T16:14:22.626Z,22.98
2022-08-05T16:16:55.767Z,23.48
2022-08-05T16:20:03.671Z,23.13
2022-08-05T16:22:13.410Z,22.90
2022-08-05T16:24:51.293Z,22.45
2022-08-05T16:27:19.602Z,22.39
2022-08-05T16:30:08.368Z,21.92
2022-08-05T16:32:51.466Z,22.07
2022-08-05T16:35:19.819Z,22.64
2022-08-05T16:38:15.745Z,23.21
2022-08-05T16:40:42.371Z,22.91
2022-08-05T16:43:16.749Z,22.83
2022-08-05T16:46:04.850Z,22.45
2022-08-05T16:48:33.601Z,22.31
2022-08-05T16:51:08.733Z,21.89
2022-08-05T16:54:05.686Z,22.20
2022-08-05T16:56:24.934Z,21.89
2022-08-05T16:58:52.474Z,21.74
2022-08-05T17:01:20.016Z,22.07
2022-08-05T17:03:47.930Z,22.19
2022-08-05T17:06:16.372Z,22.45
2022-08-05T17:08:53.388Z,22.40
2022-08-05T17:11:25.141Z,22.46
2022-08-05T17:14:00.200Z,22.42
2022-08-05T17:16:37.881Z,21.87
2022-08-05T17:19:07.861Z,21.74
2022-08-05T17:21:39.788Z,21.41
2022-08-05T17:24:19.615Z,21.47
2022-08-05T17:26:58.083Z,21.33
2022-08-05T17:29:33.180Z,21.18
2022-08-05T17:32:07.137Z,21.02
2022-08-05T17:34:35.608Z,20.94
2022-08-05T17:37:04.477Z,20.79
2022-08-05T17:39:34.413Z,20.62
2022-08-05T17:42:18.621Z,20.60
2022-08-05T17:44:51.647Z,20.53
2022-08-05T17:47:22.002Z,20.48
2022-08-05T17:49:52.281Z,20.44
2022-08-05T17:52:28.227Z,20.26
2022-08-05T17:54:55.647Z,20.01
2022-08-05T17:57:22.745Z,19.95
2022-08-05T18:00:03.726Z,19.79
2022-08-05T18:02:34.256Z,19.67
2022-08-05T18:05:06.250Z,19.57
2022-08-05T18:07:41.445Z,19.55
2022-08-05T18:10:11.586Z,19.56
2022-08-05T18:12:47.539Z,19.47
2022-08-05T18:15:14.999Z,19.34
2022-08-05T18:17:58.890Z,19.36
2022-08-05T18:20:31.579Z,19.48
2022-08-05T18:23:11.342Z,19.59
2022-08-05T18:25:45.303Z,19.54
2022-08-05T18:28:16.092Z,19.49
2022-08-05T18:30:51.161Z,19.29
2022-08-05T18:33:22.953Z,19.18
2022-08-05T18:36:03.306Z,19.15
2022-08-05T18:38:36.373Z,19.12
2022-08-05T18:41:55.049Z,19.12
2022-08-05T18:43:52.625Z,19.04
2022-08-05T18:46:20.670Z,18.93
2022-08-05T18:48:52.750Z,18.84
2022-08-05T18:52:05.204Z,18.78
2022-08-05T18:54:28.545Z,18.72
2022-08-05T18:57:02.094Z,18.59
2022-08-05T18:59:43.586Z,18.44
2022-08-05T19:02:26.706Z,18.38
2022-08-05T19:05:02.829Z,18.30
2022-08-05T19:07:46.166Z,18.18
2022-08-05T19:10:17.698Z,18.09
2022-08-05T19:12:46.234Z,18.09
2022-08-05T19:15:54.697Z,18.01
2022-08-05T19:18:09.138Z,17.89
2022-08-05T19:20:41.352Z,17.82
2022-08-05T19:24:03.825Z,17.73
2022-08-05T19:26:01.114Z,17.66
2022-08-05T19:28:34.791Z,17.58
2022-08-05T19:31:05.950Z,17.51
2022-08-05T19:33:36.849Z,17.47
2022-08-05T19:36:08.856Z,17.39
2022-08-05T19:38:36.864Z,17.31
2022-08-05T19:41:08.927Z,17.28
2022-08-05T19:44:06.518Z,17.25
2022-08-05T19:46:29.230Z,17.18
2022-08-05T19:49:03.052Z,17.09
2022-08-05T19:52:05.389Z,16.94
2022-08-05T19:54:29.500Z,16.86
2022-08-05T19:57:08.537Z,16.85
2022-08-05T19:59:55.960Z,16.80
2022-08-05T20:02:31.267Z,16.72
2022-08-05T20:04:59.785Z,16.65
2022-08-05T20:07:46.314Z,16.61
2022-08-05T20:10:16.395Z,16.61
2022-08-05T20:12:48.312Z,16.57
2022-08-05T20:15:47.761Z,16.50
2022-08-05T20:18:10.652Z,16.46
2022-08-05T20:20:56.972Z,16.38
2022-08-05T20:23:39.181Z,16.37
2022-08-05T20:26:15.304Z,16.35
2022-08-05T20:28:49.735Z,16.36
2022-08-05T20:31:21.935Z,16.33
2022-08-05T20:33:55.805Z,16.34
2022-08-05T20:36:24.136Z,16.30
2022-08-05T20:38:54.273Z,16.18
2022-08-05T20:41:27.436Z,16.03
2022-08-05T20:44:15.450Z,15.92
2022-08-05T20:46:48.025Z,15.88
2022-08-05T20:49:15.406Z,15.81
2022-08-05T20:51:53.753Z,15.87
2022-08-05T20:54:25.914Z,15.87
2022-08-05T20:57:11.105Z,15.91
2022-08-05T21:00:10.259Z,15.83
2022-08-05T21:02:29.075Z,15.84
2022-08-05T21:04:56.166Z,15.87
2022-08-05T21:07:25.155Z,15.82
2022-08-05T21:10:13.878Z,15.76
2022-08-05T21:12:41.215Z,15.70
2022-08-05T21:15:25.653Z,15.67
2022-08-05T21:18:00.913Z,15.57
2022-08-05T21:20:32.599Z,15.49
2022-08-05T21:23:00.544Z,15.35
2022-08-05T21:25:34.093Z,15.34
2022-08-05T21:28:02.183Z,15.34
2022-08-05T21:30:29.093Z,15.33
2022-08-05T21:32:56.108Z,15.32
2022-08-05T21:35:30.346Z,15.25
2022-08-05T21:38:11.061Z,15.17
2022-08-05T21:40:39.603Z,15.10
2022-08-05T21:43:08.627Z,15.02
2022-08-05T21:45:56.918Z,14.96
2022-08-05T21:48:28.612Z,14.93
2022-08-05T21:50:57.201Z,14.89
2022-08-05T21:53:27.499Z,14.89
2022-08-05T21:56:05.667Z,14.94
2022-08-05T21:58:42.339Z,15.00
2022-08-05T22:01:24.275Z,14.98
2022-08-05T22:03:53.564Z,14.90
2022-08-05T22:06:34.902Z,14.86
2022-08-05T22:09:13.997Z,14.84
2022-08-05T22:11:42.991Z,14.82
2022-08-05T22:14:35.803Z,14.79
2022-08-05T22:17:00.194Z,14.77
2022-08-05T22:20:03.300Z,14.73
2022-08-05T22:22:17.272Z,14.70
2022-08-05T22:25:21.247Z,14.67
2022-08-05T22:28:09.703Z,14.69
2022-08-05T22:30:55.327Z,14.64
2022-08-05T22:33:58.605Z,14.59
2022-08-05T22:36:15.713Z,14.58
2022-08-05T22:38:48.011Z,14.54
2022-08-05T22:42:04.861Z,14.54
2022-08-05T22:44:08.269Z,14.51
2022-08-05T22:46:39.545Z,14.49
2022-08-05T22:49:12.362Z,14.43
2022-08-05T22:52:05.309Z,14.40
2022-08-05T22:54:36.523Z,14.33
2022-08-05T22:57:07.214Z,14.26
2022-08-05T22:59:44.032Z,14.17
2022-08-05T23:02:17.252Z,14.13
2022-08-05T23:04:52.183Z,14.09
2022-08-05T23:07:22.100Z,14.04
2022-08-05T23:09:57.225Z,13.99
2022-08-05T23:12:29.036Z,13.94
2022-08-05T23:15:09.011Z,13.90
2022-08-05T23:17:37.858Z,13.88
2022-08-05T23:20:24.581Z,13.89
2022-08-05T23:22:56.118Z,13.84
2022-08-05T23:25:52.144Z,13.82
2022-08-05T23:28:11.264Z,13.75
2022-08-05T23:30:40.124Z,13.73
2022-08-05T23:33:16.289Z,13.68
2022-08-05T23:35:56.117Z,13.66
2022-08-05T23:38:26.117Z,13.61
2022-08-05T23:40:54.119Z,13.57
2022-08-05T23:43:24.951Z,13.59
2022-08-05T23:46:20.735Z,13.61
2022-08-05T23:49:00.746Z,13.59
2022-08-05T23:51:54.002Z,13.51
2022-08-05T23:54:25.526Z,13.48
2022-08-05T23:57:03.167Z,13.45
